sensor_id;sensor_type;location;lat;lon;timestamp;P1;durP1;ratioP1;P2;durP2;ratioP2
1545;SDS011;766;51.502;9.752;2024-03-02T00:02:01;21.67;;;13.05;;
1545;SDS011;766;51.502;9.752;2024-03-02T00:04:30;20.02;;;12.63;;
1545;SDS011;766;51.502;9.752;2024-03-02T00:06:58;19.77;;;12.35;;
1545;SDS011;766;51.502;9.752;2024-03-02T00:09:26;20.58;;;12.98;;
1545;SDS011;766;51.502;9.752;2024-03-02T00:11:55;22.77;;;13.90;;
1545;SDS011;766;51.502;9.752;2024-03-02T00:14:29;18.85;;;11.73;;
1545;SDS011;766;51.502;9.752;2024-03-02T00:16:57;20.20;;;11.57;;
1545;SDS011;766;51.502;9.752;2024-03-02T00:19:26;18.30;;;11.35;;
1545;SDS011;766;51.502;9.752;2024-03-02T00:21:54;18.52;;;10.88;;
1545;SDS011;766;51.502;9.752;2024-03-02T00:24:24;16.10;;;10.73;;
1545;SDS011;766;51.502;9.752;2024-03-02T00:26:59;19.70;;;11.40;;
1545;SDS011;766;51.502;9.752;2024-03-02T00:29:29;19.10;;;11.68;;
1545;SDS011;766;51.502;9.752;2024-03-02T00:31:57;16.13;;;10.65;;
1545;SDS011;766;51.502;9.752;2024-03-02T00:34:26;18.80;;;10.65;;
1545;SDS011;766;51.502;9.752;2024-03-02T00:36:56;18.65;;;10.45;;
1545;SDS011;766;51.502;9.752;2024-03-02T00:39:26;19.95;;;11.02;;
1545;SDS011;766;51.502;9.752;2024-03-02T00:41:54;20.25;;;11.63;;
1545;SDS011;766;51.502;9.752;2024-03-02T00:44:23;21.08;;;12.38;;
1545;SDS011;766;51.502;9.752;2024-03-02T00:46:57;19.92;;;11.23;;
1545;SDS011;766;51.502;9.752;2024-03-02T00:49:27;18.33;;;10.88;;
1545;SDS011;766;51.502;9.752;2024-03-02T00:51:55;18.77;;;11.77;;
1545;SDS011;766;51.502;9.752;2024-03-02T00:54:25;16.95;;;11.15;;
1545;SDS011;766;51.502;9.752;2024-03-02T00:56:55;18.80;;;11.73;;
1545;SDS011;766;51.502;9.752;2024-03-02T00:59:25;17.90;;;11.43;;
1545;SDS011;766;51.502;9.752;2024-03-02T01:01:54;17.02;;;9.82;;
1545;SDS011;766;51.502;9.752;2024-03-02T01:04:23;16.80;;;10.35;;
1545;SDS011;766;51.502;9.752;2024-03-02T01:06:52;16.92;;;10.18;;
1545;SDS011;766;51.502;9.752;2024-03-02T01:09:20;17.02;;;9.95;;
1545;SDS011;766;51.502;9.752;2024-03-02T01:11:51;16.40;;;9.93;;
1545;SDS011;766;51.502;9.752;2024-03-02T01:14:19;16.85;;;10.45;;
1545;SDS011;766;51.502;9.752;2024-03-02T01:16:48;13.45;;;9.43;;
1545;SDS011;766;51.502;9.752;2024-03-02T01:19:17;16.17;;;10.48;;
1545;SDS011;766;51.502;9.752;2024-03-02T01:21:47;16.92;;;9.57;;
1545;SDS011;766;51.502;9.752;2024-03-02T01:24:16;13.90;;;9.50;;
1545;SDS011;766;51.502;9.752;2024-03-02T01:26:45;14.23;;;8.77;;
1545;SDS011;766;51.502;9.752;2024-03-02T01:29:13;12.68;;;9.13;;
1545;SDS011;766;51.502;9.752;2024-03-02T01:31:41;11.82;;;8.10;;
1545;SDS011;766;51.502;9.752;2024-03-02T01:34:09;14.90;;;8.50;;
1545;SDS011;766;51.502;9.752;2024-03-02T01:36:39;14.35;;;9.07;;
1545;SDS011;766;51.502;9.752;2024-03-02T01:39:08;15.68;;;9.43;;
1545;SDS011;766;51.502;9.752;2024-03-02T01:41:37;17.42;;;9.57;;
1545;SDS011;766;51.502;9.752;2024-03-02T01:44:05;19.95;;;10.75;;
1545;SDS011;766;51.502;9.752;2024-03-02T01:46:33;18.60;;;10.93;;
1545;SDS011;766;51.502;9.752;2024-03-02T01:49:02;15.95;;;10.45;;
1545;SDS011;766;51.502;9.752;2024-03-02T01:51:30;18.08;;;11.20;;
1545;SDS011;766;51.502;9.752;2024-03-02T01:54:02;17.13;;;11.45;;
1545;SDS011;766;51.502;9.752;2024-03-02T01:56:31;20.15;;;12.30;;
1545;SDS011;766;51.502;9.752;2024-03-02T01:59:00;24.30;;;13.20;;
1545;SDS011;766;51.502;9.752;2024-03-02T02:01:28;20.50;;;14.10;;
1545;SDS011;766;51.502;9.752;2024-03-02T02:03:57;23.23;;;14.52;;
1545;SDS011;766;51.502;9.752;2024-03-02T02:06:25;26.63;;;15.07;;
1545;SDS011;766;51.502;9.752;2024-03-02T02:08:54;28.83;;;15.43;;
1545;SDS011;766;51.502;9.752;2024-03-02T02:11:22;25.58;;;15.77;;
1545;SDS011;766;51.502;9.752;2024-03-02T02:13:53;28.63;;;17.88;;
1545;SDS011;766;51.502;9.752;2024-03-02T02:16:22;26.88;;;16.30;;
1545;SDS011;766;51.502;9.752;2024-03-02T02:18:51;26.15;;;17.20;;
1545;SDS011;766;51.502;9.752;2024-03-02T02:21:23;30.73;;;18.00;;
1545;SDS011;766;51.502;9.752;2024-03-02T02:23:52;26.63;;;17.00;;
1545;SDS011;766;51.502;9.752;2024-03-02T02:26:20;28.40;;;15.95;;
1545;SDS011;766;51.502;9.752;2024-03-02T02:28:48;30.80;;;16.75;;
1545;SDS011;766;51.502;9.752;2024-03-02T02:31:17;31.88;;;18.40;;
1545;SDS011;766;51.502;9.752;2024-03-02T02:33:45;28.42;;;18.00;;
1545;SDS011;766;51.502;9.752;2024-03-02T02:36:14;30.33;;;17.25;;
1545;SDS011;766;51.502;9.752;2024-03-02T02:38:46;30.05;;;17.88;;
1545;SDS011;766;51.502;9.752;2024-03-02T02:41:16;28.38;;;17.52;;
1545;SDS011;766;51.502;9.752;2024-03-02T02:43:44;29.88;;;17.38;;
1545;SDS011;766;51.502;9.752;2024-03-02T02:46:12;27.80;;;16.75;;
1545;SDS011;766;51.502;9.752;2024-03-02T02:48:41;29.92;;;16.83;;
1545;SDS011;766;51.502;9.752;2024-03-02T02:51:09;29.13;;;16.77;;
1545;SDS011;766;51.502;9.752;2024-03-02T02:53:37;29.63;;;17.85;;
1545;SDS011;766;51.502;9.752;2024-03-02T02:56:08;25.70;;;16.58;;
1545;SDS011;766;51.502;9.752;2024-03-02T02:58:37;27.80;;;17.02;;
1545;SDS011;766;51.502;9.752;2024-03-02T03:01:07;25.33;;;16.30;;
1545;SDS011;766;51.502;9.752;2024-03-02T03:03:35;27.33;;;17.20;;
1545;SDS011;766;51.502;9.752;2024-03-02T03:06:03;28.65;;;16.95;;
1545;SDS011;766;51.502;9.752;2024-03-02T03:08:32;28.33;;;16.58;;
1545;SDS011;766;51.502;9.752;2024-03-02T03:11:00;27.42;;;16.52;;
1545;SDS011;766;51.502;9.752;2024-03-02T03:13:30;28.58;;;16.63;;
1545;SDS011;766;51.502;9.752;2024-03-02T03:15:58;25.35;;;16.52;;
1545;SDS011;766;51.502;9.752;2024-03-02T03:18:26;25.70;;;16.55;;
1545;SDS011;766;51.502;9.752;2024-03-02T03:20:55;25.00;;;16.67;;
1545;SDS011;766;51.502;9.752;2024-03-02T03:23:23;25.35;;;16.27;;
1545;SDS011;766;51.502;9.752;2024-03-02T03:25:52;27.58;;;15.70;;
1545;SDS011;766;51.502;9.752;2024-03-02T03:28:20;28.23;;;18.80;;
1545;SDS011;766;51.502;9.752;2024-03-02T03:30:49;27.67;;;17.17;;
1545;SDS011;766;51.502;9.752;2024-03-02T03:33:18;28.02;;;16.90;;
1545;SDS011;766;51.502;9.752;2024-03-02T03:35:46;27.23;;;16.58;;
1545;SDS011;766;51.502;9.752;2024-03-02T03:38:14;26.05;;;16.35;;
1545;SDS011;766;51.502;9.752;2024-03-02T03:40:42;24.02;;;15.13;;
1545;SDS011;766;51.502;9.752;2024-03-02T03:43:11;25.08;;;15.73;;
1545;SDS011;766;51.502;9.752;2024-03-02T03:45:41;27.02;;;16.50;;
1545;SDS011;766;51.502;9.752;2024-03-02T03:48:11;27.73;;;17.13;;
1545;SDS011;766;51.502;9.752;2024-03-02T03:50:39;25.85;;;16.00;;
1545;SDS011;766;51.502;9.752;2024-03-02T03:53:08;27.40;;;17.05;;
1545;SDS011;766;51.502;9.752;2024-03-02T03:55:36;26.73;;;17.33;;
1545;SDS011;766;51.502;9.752;2024-03-02T03:58:04;27.20;;;17.15;;
1545;SDS011;766;51.502;9.752;2024-03-02T04:00:32;27.70;;;16.50;;
1545;SDS011;766;51.502;9.752;2024-03-02T04:03:04;25.20;;;17.45;;
1545;SDS011;766;51.502;9.752;2024-03-02T04:05:33;30.55;;;18.10;;
1545;SDS011;766;51.502;9.752;2024-03-02T04:08:02;27.83;;;17.60;;
1545;SDS011;766;51.502;9.752;2024-03-02T04:10:30;31.45;;;19.35;;
1545;SDS011;766;51.502;9.752;2024-03-02T04:12:58;28.25;;;17.08;;
1545;SDS011;766;51.502;9.752;2024-03-02T04:15:27;28.35;;;17.48;;
1545;SDS011;766;51.502;9.752;2024-03-02T04:17:55;27.60;;;17.08;;
1545;SDS011;766;51.502;9.752;2024-03-02T04:20:26;26.67;;;17.00;;
1545;SDS011;766;51.502;9.752;2024-03-02T04:22:56;26.48;;;17.55;;
1545;SDS011;766;51.502;9.752;2024-03-02T04:25:24;27.23;;;16.85;;
1545;SDS011;766;51.502;9.752;2024-03-02T04:27:52;30.20;;;18.13;;
1545;SDS011;766;51.502;9.752;2024-03-02T04:30:20;33.88;;;18.23;;
1545;SDS011;766;51.502;9.752;2024-03-02T04:32:49;28.50;;;17.95;;
1545;SDS011;766;51.502;9.752;2024-03-02T04:35:17;38.72;;;19.33;;
1545;SDS011;766;51.502;9.752;2024-03-02T04:37:45;29.27;;;17.88;;
1545;SDS011;766;51.502;9.752;2024-03-02T04:40:14;31.58;;;19.58;;
1545;SDS011;766;51.502;9.752;2024-03-02T04:42:43;36.20;;;20.75;;
1545;SDS011;766;51.502;9.752;2024-03-02T04:45:11;33.50;;;20.50;;
1545;SDS011;766;51.502;9.752;2024-03-02T04:47:39;30.45;;;19.73;;
1545;SDS011;766;51.502;9.752;2024-03-02T04:50:07;36.78;;;21.30;;
1545;SDS011;766;51.502;9.752;2024-03-02T04:52:36;37.42;;;21.10;;
1545;SDS011;766;51.502;9.752;2024-03-02T04:55:05;35.70;;;20.27;;
1545;SDS011;766;51.502;9.752;2024-03-02T04:58:03;33.03;;;20.88;;
1545;SDS011;766;51.502;9.752;2024-03-02T05:00:34;34.78;;;20.77;;
1545;SDS011;766;51.502;9.752;2024-03-02T05:03:03;32.83;;;19.08;;
1545;SDS011;766;51.502;9.752;2024-03-02T05:05:31;30.23;;;19.67;;
1545;SDS011;766;51.502;9.752;2024-03-02T05:07:59;32.20;;;19.55;;
1545;SDS011;766;51.502;9.752;2024-03-02T05:10:28;32.38;;;20.45;;
1545;SDS011;766;51.502;9.752;2024-03-02T05:12:56;35.42;;;20.30;;
1545;SDS011;766;51.502;9.752;2024-03-02T05:15:27;32.78;;;20.85;;
1545;SDS011;766;51.502;9.752;2024-03-02T05:17:55;35.38;;;19.65;;
1545;SDS011;766;51.502;9.752;2024-03-02T05:20:25;37.05;;;21.65;;
1545;SDS011;766;51.502;9.752;2024-03-02T05:22:54;37.20;;;21.23;;
1545;SDS011;766;51.502;9.752;2024-03-02T05:25:22;37.97;;;20.40;;
1545;SDS011;766;51.502;9.752;2024-03-02T05:27:50;36.15;;;21.08;;
1545;SDS011;766;51.502;9.752;2024-03-02T05:30:18;37.38;;;21.85;;
1545;SDS011;766;51.502;9.752;2024-03-02T05:32:48;35.00;;;21.27;;
1545;SDS011;766;51.502;9.752;2024-03-02T05:35:16;31.90;;;20.50;;
1545;SDS011;766;51.502;9.752;2024-03-02T05:37:44;34.88;;;21.42;;
1545;SDS011;766;51.502;9.752;2024-03-02T05:40:13;38.85;;;21.90;;
1545;SDS011;766;51.502;9.752;2024-03-02T05:42:42;37.30;;;21.80;;
1545;SDS011;766;51.502;9.752;2024-03-02T05:45:10;38.80;;;21.83;;
1545;SDS011;766;51.502;9.752;2024-03-02T05:47:38;33.33;;;20.55;;
1545;SDS011;766;51.502;9.752;2024-03-02T05:50:08;37.50;;;21.88;;
1545;SDS011;766;51.502;9.752;2024-03-02T05:52:36;36.65;;;22.33;;
1545;SDS011;766;51.502;9.752;2024-03-02T05:55:05;38.13;;;23.45;;
1545;SDS011;766;51.502;9.752;2024-03-02T05:57:34;37.45;;;21.48;;
1545;SDS011;766;51.502;9.752;2024-03-02T06:00:22;38.25;;;23.45;;
1545;SDS011;766;51.502;9.752;2024-03-02T06:02:50;38.28;;;22.88;;
1545;SDS011;766;51.502;9.752;2024-03-02T06:05:20;37.33;;;22.05;;
1545;SDS011;766;51.502;9.752;2024-03-02T06:07:48;40.78;;;24.85;;
1545;SDS011;766;51.502;9.752;2024-03-02T06:10:17;45.97;;;25.38;;
1545;SDS011;766;51.502;9.752;2024-03-02T06:12:45;41.65;;;24.23;;
1545;SDS011;766;51.502;9.752;2024-03-02T06:15:13;42.38;;;23.85;;
1545;SDS011;766;51.502;9.752;2024-03-02T06:17:42;42.38;;;23.58;;
1545;SDS011;766;51.502;9.752;2024-03-02T06:20:10;41.15;;;24.40;;
1545;SDS011;766;51.502;9.752;2024-03-02T06:22:40;44.30;;;25.05;;
1545;SDS011;766;51.502;9.752;2024-03-02T06:25:08;45.72;;;23.80;;
1545;SDS011;766;51.502;9.752;2024-03-02T06:27:36;41.33;;;22.92;;
1545;SDS011;766;51.502;9.752;2024-03-02T06:30:05;42.63;;;23.27;;
1545;SDS011;766;51.502;9.752;2024-03-02T06:32:34;37.75;;;22.63;;
1545;SDS011;766;51.502;9.752;2024-03-02T06:35:03;42.30;;;23.67;;
1545;SDS011;766;51.502;9.752;2024-03-02T06:37:37;44.10;;;24.52;;
1545;SDS011;766;51.502;9.752;2024-03-02T06:40:07;41.25;;;23.60;;
1545;SDS011;766;51.502;9.752;2024-03-02T06:42:36;39.72;;;23.23;;
1545;SDS011;766;51.502;9.752;2024-03-02T06:45:05;43.75;;;24.02;;
1545;SDS011;766;51.502;9.752;2024-03-02T06:47:33;40.80;;;24.13;;
1545;SDS011;766;51.502;9.752;2024-03-02T06:50:02;43.35;;;24.40;;
1545;SDS011;766;51.502;9.752;2024-03-02T06:52:30;37.90;;;23.70;;
1545;SDS011;766;51.502;9.752;2024-03-02T06:55:00;42.20;;;22.90;;
1545;SDS011;766;51.502;9.752;2024-03-02T06:57:28;42.95;;;23.63;;
1545;SDS011;766;51.502;9.752;2024-03-02T06:59:56;42.53;;;24.75;;
1545;SDS011;766;51.502;9.752;2024-03-02T07:02:25;41.95;;;23.20;;
1545;SDS011;766;51.502;9.752;2024-03-02T07:04:54;38.47;;;23.02;;
1545;SDS011;766;51.502;9.752;2024-03-02T07:07:22;39.17;;;21.95;;
1545;SDS011;766;51.502;9.752;2024-03-02T07:09:50;43.70;;;22.52;;
1545;SDS011;766;51.502;9.752;2024-03-02T07:12:20;42.90;;;22.52;;
1545;SDS011;766;51.502;9.752;2024-03-02T07:14:48;35.00;;;22.80;;
1545;SDS011;766;51.502;9.752;2024-03-02T07:17:37;39.15;;;23.42;;
1545;SDS011;766;51.502;9.752;2024-03-02T07:20:09;40.03;;;22.70;;
1545;SDS011;766;51.502;9.752;2024-03-02T07:22:38;35.10;;;20.98;;
1545;SDS011;766;51.502;9.752;2024-03-02T07:25:11;40.78;;;21.50;;
1545;SDS011;766;51.502;9.752;2024-03-02T07:27:43;37.10;;;22.45;;
1545;SDS011;766;51.502;9.752;2024-03-02T07:30:13;41.20;;;22.88;;
1545;SDS011;766;51.502;9.752;2024-03-02T07:32:43;37.38;;;21.40;;
1545;SDS011;766;51.502;9.752;2024-03-02T07:35:12;35.15;;;21.55;;
1545;SDS011;766;51.502;9.752;2024-03-02T07:37:40;34.95;;;20.30;;
1545;SDS011;766;51.502;9.752;2024-03-02T07:40:10;32.90;;;21.23;;
1545;SDS011;766;51.502;9.752;2024-03-02T07:42:41;36.03;;;20.90;;
1545;SDS011;766;51.502;9.752;2024-03-02T07:45:11;33.47;;;19.35;;
1545;SDS011;766;51.502;9.752;2024-03-02T07:47:39;34.80;;;20.73;;
1545;SDS011;766;51.502;9.752;2024-03-02T07:50:08;36.72;;;20.27;;
1545;SDS011;766;51.502;9.752;2024-03-02T07:52:36;32.90;;;19.33;;
1545;SDS011;766;51.502;9.752;2024-03-02T07:55:05;31.92;;;20.58;;
1545;SDS011;766;51.502;9.752;2024-03-02T07:57:33;30.70;;;19.08;;
1545;SDS011;766;51.502;9.752;2024-03-02T08:00:02;32.08;;;19.38;;
1545;SDS011;766;51.502;9.752;2024-03-02T08:02:32;33.08;;;18.75;;
1545;SDS011;766;51.502;9.752;2024-03-02T08:05:00;31.38;;;18.50;;
1545;SDS011;766;51.502;9.752;2024-03-02T08:07:29;30.95;;;17.23;;
1545;SDS011;766;51.502;9.752;2024-03-02T08:09:57;33.38;;;18.45;;
1545;SDS011;766;51.502;9.752;2024-03-02T08:12:25;27.98;;;18.33;;
1545;SDS011;766;51.502;9.752;2024-03-02T08:14:53;26.65;;;16.92;;
1545;SDS011;766;51.502;9.752;2024-03-02T08:17:22;19.98;;;13.18;;
1545;SDS011;766;51.502;9.752;2024-03-02T08:19:52;21.65;;;13.70;;
1545;SDS011;766;51.502;9.752;2024-03-02T08:22:20;25.73;;;14.18;;
1545;SDS011;766;51.502;9.752;2024-03-02T08:24:48;19.73;;;13.57;;
1545;SDS011;766;51.502;9.752;2024-03-02T08:27:17;23.30;;;13.70;;
1545;SDS011;766;51.502;9.752;2024-03-02T08:29:45;22.25;;;13.30;;
1545;SDS011;766;51.502;9.752;2024-03-02T08:32:13;23.50;;;14.50;;
1545;SDS011;766;51.502;9.752;2024-03-02T08:34:43;21.38;;;13.18;;
1545;SDS011;766;51.502;9.752;2024-03-02T08:37:13;20.02;;;12.63;;
1545;SDS011;766;51.502;9.752;2024-03-02T08:39:43;22.20;;;11.80;;
1545;SDS011;766;51.502;9.752;2024-03-02T08:42:16;17.40;;;10.95;;
1545;SDS011;766;51.502;9.752;2024-03-02T08:44:44;17.30;;;10.38;;
1545;SDS011;766;51.502;9.752;2024-03-02T08:47:13;15.77;;;10.57;;
1545;SDS011;766;51.502;9.752;2024-03-02T08:49:41;18.42;;;11.30;;
1545;SDS011;766;51.502;9.752;2024-03-02T08:52:09;17.27;;;10.27;;
1545;SDS011;766;51.502;9.752;2024-03-02T08:54:39;16.08;;;10.23;;
1545;SDS011;766;51.502;9.752;2024-03-02T08:57:07;18.90;;;11.88;;
1545;SDS011;766;51.502;9.752;2024-03-02T08:59:36;23.52;;;14.82;;
1545;SDS011;766;51.502;9.752;2024-03-02T09:02:06;23.25;;;14.98;;
1545;SDS011;766;51.502;9.752;2024-03-02T09:04:35;23.35;;;14.63;;
1545;SDS011;766;51.502;9.752;2024-03-02T09:07:03;22.95;;;14.57;;
1545;SDS011;766;51.502;9.752;2024-03-02T09:09:31;24.25;;;15.38;;
1545;SDS011;766;51.502;9.752;2024-03-02T09:12:01;21.50;;;14.30;;
1545;SDS011;766;51.502;9.752;2024-03-02T09:14:29;24.33;;;15.00;;
1545;SDS011;766;51.502;9.752;2024-03-02T09:16:57;22.15;;;14.02;;
1545;SDS011;766;51.502;9.752;2024-03-02T09:19:25;17.85;;;12.02;;
1545;SDS011;766;51.502;9.752;2024-03-02T09:21:56;20.75;;;13.57;;
1545;SDS011;766;51.502;9.752;2024-03-02T09:24:25;16.30;;;10.13;;
1545;SDS011;766;51.502;9.752;2024-03-02T09:26:53;12.68;;;8.48;;
1545;SDS011;766;51.502;9.752;2024-03-02T09:29:23;12.82;;;8.85;;
1545;SDS011;766;51.502;9.752;2024-03-02T09:31:52;14.15;;;8.70;;
1545;SDS011;766;51.502;9.752;2024-03-02T09:34:23;14.57;;;9.57;;
1545;SDS011;766;51.502;9.752;2024-03-02T09:36:51;14.80;;;10.10;;
1545;SDS011;766;51.502;9.752;2024-03-02T09:39:20;15.25;;;10.70;;
1545;SDS011;766;51.502;9.752;2024-03-02T09:41:48;13.90;;;9.38;;
1545;SDS011;766;51.502;9.752;2024-03-02T09:44:17;13.98;;;10.02;;
1545;SDS011;766;51.502;9.752;2024-03-02T09:46:49;18.65;;;11.40;;
1545;SDS011;766;51.502;9.752;2024-03-02T09:49:19;15.73;;;11.05;;
1545;SDS011;766;51.502;9.752;2024-03-02T09:51:48;17.10;;;10.10;;
1545;SDS011;766;51.502;9.752;2024-03-02T09:54:16;14.90;;;9.88;;
1545;SDS011;766;51.502;9.752;2024-03-02T09:56:49;8.88;;;6.18;;
1545;SDS011;766;51.502;9.752;2024-03-02T09:59:17;11.20;;;6.50;;
1545;SDS011;766;51.502;9.752;2024-03-02T10:01:57;10.93;;;5.85;;
1545;SDS011;766;51.502;9.752;2024-03-02T10:04:29;11.02;;;5.75;;
1545;SDS011;766;51.502;9.752;2024-03-02T10:07:12;9.32;;;6.60;;
1545;SDS011;766;51.502;9.752;2024-03-02T10:09:41;9.82;;;6.47;;
1545;SDS011;766;51.502;9.752;2024-03-02T10:12:11;14.63;;;7.80;;
1545;SDS011;766;51.502;9.752;2024-03-02T10:14:41;10.38;;;6.97;;
1545;SDS011;766;51.502;9.752;2024-03-02T10:17:12;9.68;;;5.50;;
1545;SDS011;766;51.502;9.752;2024-03-02T10:19:42;9.05;;;6.00;;
1545;SDS011;766;51.502;9.752;2024-03-02T10:22:10;8.43;;;5.70;;
1545;SDS011;766;51.502;9.752;2024-03-02T10:24:41;9.07;;;6.20;;
1545;SDS011;766;51.502;9.752;2024-03-02T10:27:14;8.55;;;5.90;;
1545;SDS011;766;51.502;9.752;2024-03-02T10:29:45;9.05;;;6.18;;
1545;SDS011;766;51.502;9.752;2024-03-02T10:32:15;10.00;;;5.07;;
1545;SDS011;766;51.502;9.752;2024-03-02T10:34:44;9.40;;;5.63;;
1545;SDS011;766;51.502;9.752;2024-03-02T10:37:14;9.27;;;5.40;;
1545;SDS011;766;51.502;9.752;2024-03-02T10:39:43;7.68;;;5.15;;
1545;SDS011;766;51.502;9.752;2024-03-02T10:42:14;8.18;;;5.18;;
1545;SDS011;766;51.502;9.752;2024-03-02T10:44:43;6.78;;;4.57;;
1545;SDS011;766;51.502;9.752;2024-03-02T10:47:17;10.15;;;4.75;;
1545;SDS011;766;51.502;9.752;2024-03-02T10:49:47;7.18;;;4.63;;
1545;SDS011;766;51.502;9.752;2024-03-02T10:52:19;6.40;;;4.25;;
1545;SDS011;766;51.502;9.752;2024-03-02T10:54:49;10.18;;;4.95;;
1545;SDS011;766;51.502;9.752;2024-03-02T10:57:19;7.25;;;4.80;;
1545;SDS011;766;51.502;9.752;2024-03-02T10:59:52;9.60;;;5.55;;
1545;SDS011;766;51.502;9.752;2024-03-02T11:02:22;12.70;;;8.15;;
1545;SDS011;766;51.502;9.752;2024-03-02T11:04:53;12.95;;;7.72;;
1545;SDS011;766;51.502;9.752;2024-03-02T11:07:23;13.60;;;8.10;;
1545;SDS011;766;51.502;9.752;2024-03-02T11:09:54;12.63;;;8.25;;
1545;SDS011;766;51.502;9.752;2024-03-02T11:12:28;14.70;;;9.93;;
1545;SDS011;766;51.502;9.752;2024-03-02T11:14:59;17.05;;;9.43;;
1545;SDS011;766;51.502;9.752;2024-03-02T11:17:32;11.60;;;8.18;;
1545;SDS011;766;51.502;9.752;2024-03-02T11:20:00;10.95;;;8.15;;
1545;SDS011;766;51.502;9.752;2024-03-02T11:22:31;13.15;;;8.30;;
1545;SDS011;766;51.502;9.752;2024-03-02T11:24:59;12.18;;;8.82;;
1545;SDS011;766;51.502;9.752;2024-03-02T11:33:24;11.38;;;7.65;;
1545;SDS011;766;51.502;9.752;2024-03-02T11:35:57;13.30;;;8.05;;
1545;SDS011;766;51.502;9.752;2024-03-02T11:38:32;11.77;;;7.35;;
1545;SDS011;766;51.502;9.752;2024-03-02T11:41:01;10.88;;;7.20;;
1545;SDS011;766;51.502;9.752;2024-03-02T11:43:33;10.85;;;7.43;;
1545;SDS011;766;51.502;9.752;2024-03-02T11:46:05;10.10;;;7.10;;
1545;SDS011;766;51.502;9.752;2024-03-02T11:48:36;10.40;;;7.53;;
1545;SDS011;766;51.502;9.752;2024-03-02T11:51:05;15.00;;;7.80;;
1545;SDS011;766;51.502;9.752;2024-03-02T11:53:38;9.30;;;6.47;;
1545;SDS011;766;51.502;9.752;2024-03-02T11:56:08;9.35;;;6.93;;
1545;SDS011;766;51.502;9.752;2024-03-02T11:58:38;9.95;;;6.60;;
1545;SDS011;766;51.502;9.752;2024-03-02T12:01:08;8.70;;;6.38;;
1545;SDS011;766;51.502;9.752;2024-03-02T12:03:40;8.93;;;5.78;;
1545;SDS011;766;51.502;9.752;2024-03-02T12:06:09;8.07;;;5.57;;
1545;SDS011;766;51.502;9.752;2024-03-02T12:08:37;9.15;;;5.60;;
1545;SDS011;766;51.502;9.752;2024-03-02T12:11:06;6.65;;;4.63;;
1545;SDS011;766;51.502;9.752;2024-03-02T12:13:34;6.60;;;4.80;;
1545;SDS011;766;51.502;9.752;2024-03-02T12:16:03;7.25;;;4.45;;
1545;SDS011;766;51.502;9.752;2024-03-02T12:18:32;5.85;;;4.28;;
1545;SDS011;766;51.502;9.752;2024-03-02T12:21:01;5.97;;;3.75;;
1545;SDS011;766;51.502;9.752;2024-03-02T12:23:30;7.18;;;4.75;;
1545;SDS011;766;51.502;9.752;2024-03-02T12:25:59;10.07;;;4.63;;
1545;SDS011;766;51.502;9.752;2024-03-02T12:28:27;5.53;;;4.18;;
1545;SDS011;766;51.502;9.752;2024-03-02T12:30:57;7.40;;;3.88;;
1545;SDS011;766;51.502;9.752;2024-03-02T12:33:26;6.22;;;4.13;;
1545;SDS011;766;51.502;9.752;2024-03-02T12:35:56;6.85;;;4.40;;
1545;SDS011;766;51.502;9.752;2024-03-02T12:38:27;6.32;;;4.43;;
1545;SDS011;766;51.502;9.752;2024-03-02T12:40:57;6.32;;;4.80;;
1545;SDS011;766;51.502;9.752;2024-03-02T12:43:29;9.60;;;4.85;;
1545;SDS011;766;51.502;9.752;2024-03-02T12:45:58;6.85;;;4.47;;
1545;SDS011;766;51.502;9.752;2024-03-02T12:48:27;6.90;;;4.78;;
1545;SDS011;766;51.502;9.752;2024-03-02T12:50:55;7.32;;;4.78;;
1545;SDS011;766;51.502;9.752;2024-03-02T12:53:23;7.72;;;4.82;;
1545;SDS011;766;51.502;9.752;2024-03-02T12:55:53;7.88;;;5.00;;
1545;SDS011;766;51.502;9.752;2024-03-02T12:58:22;7.80;;;4.63;;
1545;SDS011;766;51.502;9.752;2024-03-02T13:00:50;6.20;;;4.32;;
1545;SDS011;766;51.502;9.752;2024-03-02T13:03:34;6.05;;;4.13;;
1545;SDS011;766;51.502;9.752;2024-03-02T13:06:05;6.97;;;3.95;;
1545;SDS011;766;51.502;9.752;2024-03-02T13:08:34;5.15;;;3.45;;
1545;SDS011;766;51.502;9.752;2024-03-02T13:11:04;5.65;;;3.72;;
1545;SDS011;766;51.502;9.752;2024-03-02T13:13:33;7.88;;;3.85;;
1545;SDS011;766;51.502;9.752;2024-03-02T13:16:01;6.05;;;3.97;;
1545;SDS011;766;51.502;9.752;2024-03-02T13:18:30;5.30;;;3.75;;
1545;SDS011;766;51.502;9.752;2024-03-02T13:21:00;7.47;;;3.80;;
1545;SDS011;766;51.502;9.752;2024-03-02T13:23:29;4.13;;;3.33;;
1545;SDS011;766;51.502;9.752;2024-03-02T13:25:57;4.78;;;3.42;;
1545;SDS011;766;51.502;9.752;2024-03-02T13:28:27;5.60;;;3.55;;
1545;SDS011;766;51.502;9.752;2024-03-02T13:30:55;4.95;;;3.35;;
1545;SDS011;766;51.502;9.752;2024-03-02T13:33:24;5.28;;;3.30;;
1545;SDS011;766;51.502;9.752;2024-03-02T13:35:52;4.13;;;3.45;;
1545;SDS011;766;51.502;9.752;2024-03-02T13:38:20;5.13;;;3.40;;
1545;SDS011;766;51.502;9.752;2024-03-02T13:40:49;6.70;;;4.15;;
1545;SDS011;766;51.502;9.752;2024-03-02T13:43:18;5.10;;;3.30;;
1545;SDS011;766;51.502;9.752;2024-03-02T13:45:48;5.45;;;3.80;;
1545;SDS011;766;51.502;9.752;2024-03-02T13:48:18;5.95;;;3.85;;
1545;SDS011;766;51.502;9.752;2024-03-02T13:50:46;5.22;;;3.40;;
1545;SDS011;766;51.502;9.752;2024-03-02T13:53:15;4.82;;;3.22;;
1545;SDS011;766;51.502;9.752;2024-03-02T13:55:44;8.43;;;4.22;;
1545;SDS011;766;51.502;9.752;2024-03-02T13:58:12;6.22;;;3.90;;
1545;SDS011;766;51.502;9.752;2024-03-02T14:00:40;10.10;;;4.80;;
1545;SDS011;766;51.502;9.752;2024-03-02T14:03:10;5.53;;;4.50;;
1545;SDS011;766;51.502;9.752;2024-03-02T14:05:38;7.03;;;4.40;;
1545;SDS011;766;51.502;9.752;2024-03-02T14:08:06;4.55;;;3.50;;
1545;SDS011;766;51.502;9.752;2024-03-02T14:10:35;5.93;;;4.25;;
1545;SDS011;766;51.502;9.752;2024-03-02T14:13:03;5.93;;;3.60;;
1545;SDS011;766;51.502;9.752;2024-03-02T14:15:31;5.65;;;3.92;;
1545;SDS011;766;51.502;9.752;2024-03-02T14:18:00;4.80;;;3.65;;
1545;SDS011;766;51.502;9.752;2024-03-02T14:20:30;5.90;;;3.67;;
1545;SDS011;766;51.502;9.752;2024-03-02T14:22:59;4.90;;;3.38;;
1545;SDS011;766;51.502;9.752;2024-03-02T14:25:27;4.82;;;4.00;;
1545;SDS011;766;51.502;9.752;2024-03-02T14:27:57;5.63;;;3.80;;
1545;SDS011;766;51.502;9.752;2024-03-02T14:30:46;7.18;;;4.50;;
1545;SDS011;766;51.502;9.752;2024-03-02T14:33:14;4.90;;;3.60;;
1545;SDS011;766;51.502;9.752;2024-03-02T14:35:44;5.07;;;3.25;;
1545;SDS011;766;51.502;9.752;2024-03-02T14:38:13;6.32;;;4.20;;
1545;SDS011;766;51.502;9.752;2024-03-02T14:40:41;6.45;;;3.45;;
1545;SDS011;766;51.502;9.752;2024-03-02T14:43:10;3.42;;;2.53;;
1545;SDS011;766;51.502;9.752;2024-03-02T14:45:38;5.75;;;4.07;;
1545;SDS011;766;51.502;9.752;2024-03-02T14:48:07;4.78;;;2.72;;
1545;SDS011;766;51.502;9.752;2024-03-02T14:50:35;6.40;;;2.97;;
1545;SDS011;766;51.502;9.752;2024-03-02T14:53:06;4.28;;;3.35;;
1545;SDS011;766;51.502;9.752;2024-03-02T14:55:34;3.47;;;2.55;;
1545;SDS011;766;51.502;9.752;2024-03-02T14:58:03;3.97;;;2.25;;
1545;SDS011;766;51.502;9.752;2024-03-02T15:00:31;4.72;;;2.38;;
1545;SDS011;766;51.502;9.752;2024-03-02T15:02:59;5.60;;;2.30;;
1545;SDS011;766;51.502;9.752;2024-03-02T15:05:29;3.97;;;2.28;;
1545;SDS011;766;51.502;9.752;2024-03-02T15:07:58;3.92;;;2.47;;
1545;SDS011;766;51.502;9.752;2024-03-02T15:10:29;2.33;;;1.98;;
1545;SDS011;766;51.502;9.752;2024-03-02T15:12:57;2.72;;;1.88;;
1545;SDS011;766;51.502;9.752;2024-03-02T15:15:26;3.13;;;1.83;;
1545;SDS011;766;51.502;9.752;2024-03-02T15:17:54;3.13;;;1.58;;
1545;SDS011;766;51.502;9.752;2024-03-02T15:20:22;1.88;;;1.25;;
1545;SDS011;766;51.502;9.752;2024-03-02T15:22:50;3.95;;;1.70;;
1545;SDS011;766;51.502;9.752;2024-03-02T15:25:18;1.70;;;1.25;;
1545;SDS011;766;51.502;9.752;2024-03-02T15:27:48;3.75;;;1.42;;
1545;SDS011;766;51.502;9.752;2024-03-02T15:30:16;1.20;;;1.10;;